Time;durP1;ratioP1;P1;durP2;ratioP2;P2;SDS_P1;SDS_P2;PMS_P1;PMS_P2;Temp;Humidity;BMP_temperature;BMP_pressure;BME280_temperature;BME280_humidity;BME280_pressure;Samples;Min_cycle;Max_cycle;Signal;HPM_P1;HPM_P2
2022/03/25 00:00:14;;;;;;;1.98;0.50;;;;;;;;;;4992573;28;20434;-61
2022/03/25 00:02:41;;;;;;;1.42;0.50;;;;;;;;;;4990055;28;20038;-61
2022/03/25 00:05:07;;;;;;;1.27;0.50;;;;;;;;;;4991368;28;20043;-61
2022/03/25 00:07:34;;;;;;;1.40;0.45;;;;;;;;;;4991174;28;20030;-63
2022/03/25 00:10:00;;;;;;;0.68;0.40;;;;;;;;;;4990945;28;20049;-61
2022/03/25 00:12:26;;;;;;;0.95;0.40;;;;;;;;;;4989124;28;20054;-64
2022/03/25 00:14:52;;;;;;;1.20;0.45;;;;;;;;;;4988163;28;20108;-60
2022/03/25 00:17:18;;;;;;;1.15;0.50;;;;;;;;;;4987602;28;20521;-60
2022/03/25 00:19:44;;;;;;;7.93;0.60;;;;;;;;;;5072324;28;20041;-58
2022/03/25 00:22:10;;;;;;;2.40;0.50;;;;;;;;;;4999036;28;20041;-62
2022/03/25 00:24:36;;;;;;;4.22;0.47;;;;;;;;;;5010567;28;20034;-60
2022/03/25 00:27:02;;;;;;;1.23;0.50;;;;;;;;;;5009219;28;20125;-63
2022/03/25 00:29:28;;;;;;;0.95;0.38;;;;;;;;;;5008865;28;20099;-62
2022/03/25 00:31:54;;;;;;;1.02;0.40;;;;;;;;;;5008214;28;20049;-60
2022/03/25 00:34:20;;;;;;;0.93;0.40;;;;;;;;;;5012198;27;20391;-59
2022/03/25 00:36:46;;;;;;;0.85;0.40;;;;;;;;;;5007658;28;20422;-61
2022/03/25 00:39:12;;;;;;;1.23;0.40;;;;;;;;;;4990610;28;20448;-60
2022/03/25 00:41:38;;;;;;;2.03;0.45;;;;;;;;;;5007419;28;20043;-61
2022/03/25 00:44:05;;;;;;;3.95;0.52;;;;;;;;;;5011242;27;20053;-60
2022/03/25 00:46:31;;;;;;;1.50;0.50;;;;;;;;;;5010045;27;20041;-60
2022/03/25 00:48:57;;;;;;;3.25;0.60;;;;;;;;;;5012337;27;20050;-60
2022/03/25 00:51:23;;;;;;;2.63;0.60;;;;;;;;;;5007113;28;20075;-60
2022/03/25 00:53:49;;;;;;;1.75;0.50;;;;;;;;;;5006964;28;20041;-57
2022/03/25 00:56:15;;;;;;;1.25;0.40;;;;;;;;;;5008827;28;20264;-60
2022/03/25 00:58:42;;;;;;;1.23;0.40;;;;;;;;;;5012057;27;20052;-61
2022/03/25 01:01:08;;;;;;;1.77;0.57;;;;;;;;;;5009820;27;20050;-60
2022/03/25 01:03:35;;;;;;;2.55;0.50;;;;;;;;;;5006450;28;20033;-60
2022/03/25 01:06:01;;;;;;;1.00;0.45;;;;;;;;;;5006654;27;20048;-58
2022/03/25 01:08:27;;;;;;;0.90;0.40;;;;;;;;;;4988946;28;20034;-61
2022/03/25 01:10:54;;;;;;;7.32;0.70;;;;;;;;;;5092485;27;20125;-61
2022/03/25 01:13:20;;;;;;;5.25;0.65;;;;;;;;;;5007006;28;20126;-59
2022/03/25 01:15:45;;;;;;;5.47;1.60;;;;;;;;;;5008760;27;20041;-63
2022/03/25 01:18:11;;;;;;;3.97;0.65;;;;;;;;;;5007661;27;20042;-61
2022/03/25 01:20:37;;;;;;;0.80;0.40;;;;;;;;;;5008386;27;20045;-61
2022/03/25 01:23:04;;;;;;;1.67;0.57;;;;;;;;;;5007211;28;20053;-58
2022/03/25 01:25:32;;;;;;;1.40;0.50;;;;;;;;;;5007268;28;20037;-60
2022/03/25 01:27:57;;;;;;;1.52;0.50;;;;;;;;;;5007706;28;20513;-60
2022/03/25 01:30:23;;;;;;;0.98;0.50;;;;;;;;;;5009899;27;20116;-60
2022/03/25 01:32:50;;;;;;;3.72;0.65;;;;;;;;;;5014301;27;20053;-60
2022/03/25 01:35:16;;;;;;;1.83;0.60;;;;;;;;;;5009108;28;20042;-62
2022/03/25 01:37:43;;;;;;;8.82;0.70;;;;;;;;;;5007896;28;20038;-61
2022/03/25 01:40:09;;;;;;;2.22;0.60;;;;;;;;;;5008935;28;20038;-60
2022/03/25 01:42:42;;;;;;;2.80;0.80;;;;;;;;;;5008679;28;20133;-60
2022/03/25 01:45:11;;;;;;;10.70;1.00;;;;;;;;;;5012722;28;20066;-61
2022/03/25 01:47:38;;;;;;;2.38;0.50;;;;;;;;;;5006054;28;20076;-61
2022/03/25 01:50:04;;;;;;;5.05;0.90;;;;;;;;;;5009277;27;20041;-61
2022/03/25 01:52:30;;;;;;;9.10;0.82;;;;;;;;;;5007530;28;20094;-59
2022/03/25 01:55:13;;;;;;;2.40;0.70;;;;;;;;;;5007959;27;20033;-60
2022/03/25 01:57:39;;;;;;;5.07;0.52;;;;;;;;;;5031129;28;20180;-59
2022/03/25 02:00:06;;;;;;;3.90;0.95;;;;;;;;;;5006453;28;20042;-60
2022/03/25 02:02:32;;;;;;;9.77;0.90;;;;;;;;;;5010109;28;20934;-60
2022/03/25 02:04:59;;;;;;;6.47;0.90;;;;;;;;;;5007966;28;20067;-61
2022/03/25 02:07:25;;;;;;;2.85;0.85;;;;;;;;;;5006772;28;20042;-59
2022/03/25 02:09:51;;;;;;;11.15;1.00;;;;;;;;;;5010562;28;20506;-60
2022/03/25 02:12:17;;;;;;;5.32;1.15;;;;;;;;;;5006569;28;20126;-61
2022/03/25 02:14:44;;;;;;;7.80;1.80;;;;;;;;;;5006324;28;20038;-59
2022/03/25 02:17:10;;;;;;;8.15;1.25;;;;;;;;;;5006180;28;20041;-60
2022/03/25 02:19:36;;;;;;;6.30;1.10;;;;;;;;;;5007228;27;20038;-60
2022/03/25 02:22:02;;;;;;;5.68;1.05;;;;;;;;;;5004196;28;20137;-59
2022/03/25 02:24:28;;;;;;;4.70;1.20;;;;;;;;;;5006765;28;20048;-60
2022/03/25 02:26:54;;;;;;;14.82;4.18;;;;;;;;;;5006073;28;20080;-60
2022/03/25 02:29:19;;;;;;;8.88;2.83;;;;;;;;;;5003723;28;20038;-58
2022/03/25 02:31:45;;;;;;;9.57;3.30;;;;;;;;;;5006000;28;20056;-59
2022/03/25 02:34:12;;;;;;;10.88;3.80;;;;;;;;;;5006149;28;20050;-59
2022/03/25 02:36:38;;;;;;;9.63;2.42;;;;;;;;;;5006107;27;20046;-58
2022/03/25 02:39:05;;;;;;;6.88;1.73;;;;;;;;;;5008390;27;20035;-58
2022/03/25 02:41:31;;;;;;;4.65;1.10;;;;;;;;;;5000709;28;20390;-58
2022/03/25 02:43:57;;;;;;;5.78;1.15;;;;;;;;;;4999622;28;20049;-58
2022/03/25 02:46:23;;;;;;;6.85;1.33;;;;;;;;;;5004384;28;20034;-60
2022/03/25 02:48:52;;;;;;;10.95;4.43;;;;;;;;;;5010109;28;20034;-59
2022/03/25 02:51:18;;;;;;;6.53;2.03;;;;;;;;;;4995874;28;20054;-56
2022/03/25 02:53:44;;;;;;;4.50;1.80;;;;;;;;;;5007421;28;20049;-57
2022/03/25 02:56:10;;;;;;;10.98;1.73;;;;;;;;;;5008289;28;20807;-61
2022/03/25 02:58:37;;;;;;;6.38;1.10;;;;;;;;;;5007397;28;20128;-59
2022/03/25 03:01:03;;;;;;;6.55;0.95;;;;;;;;;;5008268;28;20110;-59
2022/03/25 03:03:29;;;;;;;14.18;2.70;;;;;;;;;;5007391;28;20041;-58
2022/03/25 03:05:55;;;;;;;5.80;2.20;;;;;;;;;;5009137;28;20045;-60
2022/03/25 03:08:21;;;;;;;12.00;2.80;;;;;;;;;;5008891;28;20506;-61
2022/03/25 03:10:47;;;;;;;11.32;5.88;;;;;;;;;;5010263;28;20050;-59
2022/03/25 03:13:13;;;;;;;15.88;7.78;;;;;;;;;;5009948;28;20038;-57
2022/03/25 03:15:39;;;;;;;6.68;2.38;;;;;;;;;;5011671;28;20109;-61
2022/03/25 03:18:06;;;;;;;8.55;3.70;;;;;;;;;;5010310;28;20091;-60
2022/03/25 03:20:32;;;;;;;11.35;4.07;;;;;;;;;;5011946;27;20471;-60
2022/03/25 03:22:58;;;;;;;8.20;2.90;;;;;;;;;;5012963;28;20046;-61
2022/03/25 03:25:26;;;;;;;6.85;2.10;;;;;;;;;;5012887;28;20041;-60
2022/03/25 03:27:52;;;;;;;4.20;1.33;;;;;;;;;;5013091;28;20087;-58
2022/03/25 03:30:18;;;;;;;3.30;1.02;;;;;;;;;;5012005;28;20053;-57
2022/03/25 03:32:45;;;;;;;6.95;1.17;;;;;;;;;;5008991;28;20586;-59
2022/03/25 03:35:11;;;;;;;5.03;1.27;;;;;;;;;;5010509;28;20084;-59
2022/03/25 03:37:41;;;;;;;3.72;0.95;;;;;;;;;;5009399;28;20052;-59
2022/03/25 03:40:08;;;;;;;4.38;1.10;;;;;;;;;;5009954;28;20033;-60
2022/03/25 03:42:34;;;;;;;4.65;1.40;;;;;;;;;;5008616;28;20508;-60
2022/03/25 03:45:00;;;;;;;3.75;0.95;;;;;;;;;;5010312;28;20046;-60
2022/03/25 03:47:25;;;;;;;3.72;1.23;;;;;;;;;;5008828;28;20033;-59
2022/03/25 03:49:51;;;;;;;9.45;1.38;;;;;;;;;;5009264;28;20045;-60
2022/03/25 03:52:17;;;;;;;5.50;0.93;;;;;;;;;;5010706;27;20053;-59
2022/03/25 03:54:43;;;;;;;2.83;0.93;;;;;;;;;;5009593;28;20180;-58
2022/03/25 03:57:09;;;;;;;5.30;1.35;;;;;;;;;;5011193;28;20883;-60
2022/03/25 03:59:35;;;;;;;5.45;1.20;;;;;;;;;;5008331;28;20037;-59
2022/03/25 04:02:01;;;;;;;9.93;1.65;;;;;;;;;;5009199;28;20524;-61
2022/03/25 04:04:27;;;;;;;6.43;1.40;;;;;;;;;;5008872;28;20058;-60
2022/03/25 04:06:53;;;;;;;8.30;1.63;;;;;;;;;;5012921;27;20068;-59
2022/03/25 04:09:19;;;;;;;3.90;1.50;;;;;;;;;;5007630;28;20046;-61
2022/03/25 04:11:45;;;;;;;7.20;1.75;;;;;;;;;;5007617;28;20541;-59
2022/03/25 04:14:11;;;;;;;4.28;1.40;;;;;;;;;;5007631;28;20046;-59
2022/03/25 04:16:37;;;;;;;12.30;1.60;;;;;;;;;;5007135;28;20123;-60
2022/03/25 04:19:03;;;;;;;4.22;1.33;;;;;;;;;;5007771;28;20049;-59
2022/03/25 04:21:29;;;;;;;10.65;1.35;;;;;;;;;;5007053;27;20410;-59
2022/03/25 04:23:55;;;;;;;7.43;1.67;;;;;;;;;;5008875;28;20042;-60
2022/03/25 04:26:21;;;;;;;8.15;1.58;;;;;;;;;;5008816;27;20068;-56
2022/03/25 04:28:47;;;;;;;11.10;1.33;;;;;;;;;;5008750;28;20038;-57
2022/03/25 04:31:13;;;;;;;8.82;1.73;;;;;;;;;;5007682;27;20037;-57
2022/03/25 04:33:40;;;;;;;9.95;1.85;;;;;;;;;;5008426;28;20139;-60
2022/03/25 04:36:08;;;;;;;9.48;2.17;;;;;;;;;;5009801;27;20042;-58
2022/03/25 04:38:34;;;;;;;7.10;1.90;;;;;;;;;;5006539;28;20042;-61
2022/03/25 04:41:00;;;;;;;6.85;1.65;;;;;;;;;;5010197;27;20045;-58
2022/03/25 04:43:26;;;;;;;7.30;1.98;;;;;;;;;;5008741;28;20051;-58
2022/03/25 04:45:52;;;;;;;7.90;2.08;;;;;;;;;;5007479;27;20033;-59
2022/03/25 04:48:18;;;;;;;10.15;2.30;;;;;;;;;;5009323;28;20038;-59
2022/03/25 04:50:44;;;;;;;12.57;2.05;;;;;;;;;;5007285;27;20090;-58
2022/03/25 04:53:10;;;;;;;18.60;2.40;;;;;;;;;;5007260;28;20052;-57
2022/03/25 04:55:36;;;;;;;8.35;2.42;;;;;;;;;;5006097;28;21023;-59
2022/03/25 04:58:02;;;;;;;10.27;2.28;;;;;;;;;;5008329;28;20144;-59
2022/03/25 05:00:28;;;;;;;9.95;2.03;;;;;;;;;;5006850;28;20068;-60
2022/03/25 05:02:54;;;;;;;12.07;2.60;;;;;;;;;;5009825;28;20065;-55
2022/03/25 05:05:20;;;;;;;14.02;2.30;;;;;;;;;;5005814;28;20042;-59
2022/03/25 05:07:46;;;;;;;7.03;2.00;;;;;;;;;;5009601;27;20542;-61
2022/03/25 05:10:13;;;;;;;8.32;2.10;;;;;;;;;;5001319;28;20057;-60
2022/03/25 05:12:40;;;;;;;13.73;2.42;;;;;;;;;;5011145;27;20045;-58
2022/03/25 05:15:06;;;;;;;12.85;2.22;;;;;;;;;;5009067;28;20048;-60
2022/03/25 05:17:34;;;;;;;16.63;2.75;;;;;;;;;;5008589;28;20030;-61
2022/03/25 05:20:04;;;;;;;17.45;2.70;;;;;;;;;;5009451;28;20057;-58
2022/03/25 05:22:30;;;;;;;6.15;1.92;;;;;;;;;;5009998;28;20087;-59
2022/03/25 05:24:55;;;;;;;11.18;2.28;;;;;;;;;;5010039;28;20046;-59
2022/03/25 05:27:21;;;;;;;9.50;2.17;;;;;;;;;;5012452;28;20564;-58
2022/03/25 05:29:47;;;;;;;5.95;1.98;;;;;;;;;;5011768;28;20106;-61
2022/03/25 05:32:13;;;;;;;11.57;2.22;;;;;;;;;;5012781;28;20128;-60
2022/03/25 05:34:39;;;;;;;7.60;2.13;;;;;;;;;;5009020;28;20514;-59
2022/03/25 05:37:06;;;;;;;8.52;3.55;;;;;;;;;;5009623;28;20049;-56
2022/03/25 05:39:32;;;;;;;9.95;2.33;;;;;;;;;;5008469;28;20049;-60
2022/03/25 05:41:58;;;;;;;9.45;2.80;;;;;;;;;;5008195;28;20895;-59
2022/03/25 05:44:24;;;;;;;7.97;2.95;;;;;;;;;;5008295;28;20033;-60
2022/03/25 05:46:50;;;;;;;9.00;3.08;;;;;;;;;;5008224;28;20138;-59
2022/03/25 05:49:16;;;;;;;12.13;2.92;;;;;;;;;;5007149;28;20533;-58
2022/03/25 05:51:42;;;;;;;10.45;3.20;;;;;;;;;;5007418;28;20038;-56
2022/03/25 05:54:07;;;;;;;13.50;3.38;;;;;;;;;;5008186;28;20037;-58
2022/03/25 05:56:34;;;;;;;12.20;2.75;;;;;;;;;;5007903;28;20074;-59
2022/03/25 05:59:00;;;;;;;13.35;3.28;;;;;;;;;;5008248;28;20046;-60
2022/03/25 06:01:25;;;;;;;13.57;3.30;;;;;;;;;;5007734;28;20070;-60
2022/03/25 06:03:51;;;;;;;12.75;2.58;;;;;;;;;;5008269;28;20548;-60
2022/03/25 06:06:17;;;;;;;15.40;2.92;;;;;;;;;;5009858;27;20044;-59
2022/03/25 06:08:43;;;;;;;7.65;2.72;;;;;;;;;;5008888;28;20050;-61
2022/03/25 06:11:09;;;;;;;11.52;2.78;;;;;;;;;;5007020;27;20076;-59
2022/03/25 06:13:35;;;;;;;9.32;2.72;;;;;;;;;;5008446;28;20050;-59
2022/03/25 06:16:01;;;;;;;15.93;3.17;;;;;;;;;;5009519;27;20529;-60
2022/03/25 06:18:27;;;;;;;16.73;3.05;;;;;;;;;;5006075;28;20580;-60
2022/03/25 06:20:53;;;;;;;8.85;2.78;;;;;;;;;;5008834;28;20053;-60
2022/03/25 06:23:19;;;;;;;15.75;3.30;;;;;;;;;;5009067;28;20459;-60
2022/03/25 06:25:45;;;;;;;13.20;3.30;;;;;;;;;;5007571;28;20026;-59
2022/03/25 06:28:10;;;;;;;13.48;3.22;;;;;;;;;;5041537;28;20044;-59
2022/03/25 06:30:38;;;;;;;12.40;3.13;;;;;;;;;;5007264;28;20434;-58
2022/03/25 06:33:05;;;;;;;14.70;3.03;;;;;;;;;;5008163;28;20037;-59
2022/03/25 06:35:31;;;;;;;8.52;3.17;;;;;;;;;;5006190;28;20033;-58
2022/03/25 06:37:57;;;;;;;7.90;3.28;;;;;;;;;;4989536;28;20055;-59
2022/03/25 06:40:23;;;;;;;11.48;3.67;;;;;;;;;;5006731;28;20049;-58
2022/03/25 06:42:50;;;;;;;9.07;2.90;;;;;;;;;;5005891;28;20034;-59
2022/03/25 06:45:16;;;;;;;16.58;3.28;;;;;;;;;;5004434;28;20443;-56
2022/03/25 06:47:43;;;;;;;14.50;3.10;;;;;;;;;;5006122;28;20035;-60
2022/03/25 06:50:10;;;;;;;9.25;2.40;;;;;;;;;;5004111;28;20042;-58
2022/03/25 06:52:36;;;;;;;11.57;3.25;;;;;;;;;;5006641;28;20046;-58
2022/03/25 06:55:03;;;;;;;8.13;2.35;;;;;;;;;;5007992;28;20057;-57
2022/03/25 06:57:29;;;;;;;4.78;2.20;;;;;;;;;;5008005;28;20095;-60
2022/03/25 06:59:55;;;;;;;9.15;2.60;;;;;;;;;;5007391;28;20041;-60
2022/03/25 07:02:21;;;;;;;12.25;2.90;;;;;;;;;;5006725;28;20034;-57
2022/03/25 07:04:47;;;;;;;9.68;2.65;;;;;;;;;;5005587;28;20038;-60
2022/03/25 07:07:14;;;;;;;7.47;2.50;;;;;;;;;;5005914;28;20041;-57
2022/03/25 07:09:40;;;;;;;8.23;2.22;;;;;;;;;;5009047;28;20153;-58
2022/03/25 07:12:06;;;;;;;12.45;2.88;;;;;;;;;;5006938;28;20577;-57
2022/03/25 07:14:32;;;;;;;7.35;2.30;;;;;;;;;;5005047;28;20462;-57
2022/03/25 07:16:58;;;;;;;7.65;2.95;;;;;;;;;;5006918;28;20068;-55
2022/03/25 07:19:25;;;;;;;9.40;3.28;;;;;;;;;;5038610;28;20120;-59
2022/03/25 07:21:51;;;;;;;14.45;3.60;;;;;;;;;;5006637;28;20065;-58
2022/03/25 07:24:17;;;;;;;10.55;2.97;;;;;;;;;;5005216;28;20146;-58
2022/03/25 07:26:43;;;;;;;11.50;3.00;;;;;;;;;;5005844;28;20058;-56
2022/03/25 07:29:11;;;;;;;13.70;3.45;;;;;;;;;;5005113;28;20034;-57
2022/03/25 07:31:37;;;;;;;5.25;2.53;;;;;;;;;;5004439;28;20045;-57
2022/03/25 07:34:02;;;;;;;6.53;2.90;;;;;;;;;;5006895;28;20456;-57
2022/03/25 07:36:28;;;;;;;7.82;2.72;;;;;;;;;;5006094;28;20053;-59
2022/03/25 07:38:54;;;;;;;11.32;3.00;;;;;;;;;;5005985;28;21138;-59
2022/03/25 07:41:21;;;;;;;13.85;2.95;;;;;;;;;;5004318;28;20465;-58
2022/03/25 07:43:47;;;;;;;11.07;2.65;;;;;;;;;;5008026;28;20041;-57
2022/03/25 07:46:13;;;;;;;11.40;2.65;;;;;;;;;;5006722;28;20029;-57
2022/03/25 07:48:39;;;;;;;6.10;2.50;;;;;;;;;;5005741;28;20491;-57
2022/03/25 07:51:07;;;;;;;5.47;2.30;;;;;;;;;;5003735;28;20110;-58
2022/03/25 07:53:33;;;;;;;7.57;2.00;;;;;;;;;;4988813;28;20041;-59
2022/03/25 07:55:59;;;;;;;5.45;2.00;;;;;;;;;;5004902;28;21581;-58
2022/03/25 07:58:25;;;;;;;5.85;2.20;;;;;;;;;;5005374;28;20029;-59
2022/03/25 08:00:51;;;;;;;7.40;2.00;;;;;;;;;;5005469;28;20081;-59
2022/03/25 08:03:18;;;;;;;18.85;2.47;;;;;;;;;;5001792;28;20081;-59
2022/03/25 08:05:45;;;;;;;8.32;1.98;;;;;;;;;;5003191;28;20045;-60
2022/03/25 08:08:11;;;;;;;5.18;1.70;;;;;;;;;;5009357;27;20026;-60
2022/03/25 08:10:39;;;;;;;7.25;1.95;;;;;;;;;;5007397;28;20061;-59
2022/03/25 08:13:05;;;;;;;7.70;1.85;;;;;;;;;;5009763;28;20076;-60
2022/03/25 08:15:32;;;;;;;8.15;2.05;;;;;;;;;;5008680;27;20042;-59
2022/03/25 08:18:08;;;;;;;13.25;2.13;;;;;;;;;;5009404;27;20077;-58
2022/03/25 08:20:39;;;;;;;6.78;2.10;;;;;;;;;;5008441;28;20167;-59
2022/03/25 08:23:06;;;;;;;5.85;2.03;;;;;;;;;;5009365;28;20054;-59
2022/03/25 08:28:17;;;;;;;9.23;2.10;;;;;;;;;;5009560;27;20639;-58
2022/03/25 08:30:43;;;;;;;4.85;1.83;;;;;;;;;;5007619;27;20038;-57
2022/03/25 08:33:10;;;;;;;6.35;2.42;;;;;;;;;;5008373;28;20557;-55
2022/03/25 08:35:36;;;;;;;8.55;2.70;;;;;;;;;;4999426;28;20569;-57
2022/03/25 08:38:02;;;;;;;8.85;2.78;;;;;;;;;;5007356;27;20060;-59
2022/03/25 08:40:29;;;;;;;9.38;2.42;;;;;;;;;;5008600;28;21773;-59
2022/03/25 08:42:55;;;;;;;9.00;3.10;;;;;;;;;;5095283;27;20038;-56
2022/03/25 08:45:22;;;;;;;6.72;2.55;;;;;;;;;;5009054;28;20043;-59
2022/03/25 08:47:51;;;;;;;7.85;2.47;;;;;;;;;;4993113;28;20041;-60
2022/03/25 08:50:17;;;;;;;6.22;1.90;;;;;;;;;;4991262;28;20129;-57
2022/03/25 08:52:44;;;;;;;9.30;2.45;;;;;;;;;;5009808;28;20042;-56
2022/03/25 08:55:11;;;;;;;8.85;2.00;;;;;;;;;;5011631;28;20402;-58
2022/03/25 08:57:38;;;;;;;8.48;2.55;;;;;;;;;;5012128;27;20044;-58
2022/03/25 09:00:05;;;;;;;6.70;1.92;;;;;;;;;;5003807;28;20037;-59
2022/03/25 09:02:31;;;;;;;6.32;2.25;;;;;;;;;;5009242;28;20045;-58
2022/03/25 09:04:57;;;;;;;8.32;2.42;;;;;;;;;;4989437;28;20034;-58
2022/03/25 09:07:23;;;;;;;4.80;1.92;;;;;;;;;;5008932;27;20042;-59
2022/03/25 09:09:48;;;;;;;4.20;1.70;;;;;;;;;;5009215;28;20053;-59
2022/03/25 09:12:14;;;;;;;6.00;1.95;;;;;;;;;;5008834;28;20033;-59
2022/03/25 09:14:40;;;;;;;6.50;2.33;;;;;;;;;;4998384;28;20075;-59
2022/03/25 09:17:06;;;;;;;7.53;2.25;;;;;;;;;;5007915;28;21755;-58
2022/03/25 09:19:32;;;;;;;8.23;1.75;;;;;;;;;;5006468;28;20497;-58
2022/03/25 09:21:58;;;;;;;5.53;2.10;;;;;;;;;;5008430;28;20085;-59
2022/03/25 09:24:24;;;;;;;5.25;1.80;;;;;;;;;;5010063;28;20030;-58
2022/03/25 09:26:50;;;;;;;7.78;1.70;;;;;;;;;;5007579;28;20046;-59
2022/03/25 09:29:16;;;;;;;14.02;1.95;;;;;;;;;;5015039;28;20037;-60
2022/03/25 09:31:45;;;;;;;10.10;1.83;;;;;;;;;;5009425;28;20069;-59
2022/03/25 09:36:56;;;;;;;5.25;1.40;;;;;;;;;;5007329;28;20094;-57
2022/03/25 09:39:22;;;;;;;4.13;1.30;;;;;;;;;;5010993;28;20082;-59
2022/03/25 09:41:48;;;;;;;6.18;1.55;;;;;;;;;;5009566;28;20054;-58
2022/03/25 09:44:15;;;;;;;2.75;1.08;;;;;;;;;;5009401;27;20057;-59
2022/03/25 09:46:42;;;;;;;5.57;1.20;;;;;;;;;;5090595;27;20121;-55
2022/03/25 09:49:09;;;;;;;3.72;1.45;;;;;;;;;;4991189;28;20042;-56
2022/03/25 09:51:35;;;;;;;4.82;1.48;;;;;;;;;;5007664;28;20165;-59
2022/03/25 09:54:01;;;;;;;9.88;1.52;;;;;;;;;;5006033;28;20064;-57
2022/03/25 09:56:27;;;;;;;5.72;1.00;;;;;;;;;;5001701;28;20555;-58
2022/03/25 09:58:53;;;;;;;3.67;1.35;;;;;;;;;;5006473;28;20046;-57
2022/03/25 10:01:20;;;;;;;3.70;1.05;;;;;;;;;;5004796;28;20131;-59
2022/03/25 10:03:46;;;;;;;8.73;1.20;;;;;;;;;;5007360;28;20040;-59
2022/03/25 10:06:12;;;;;;;5.60;1.17;;;;;;;;;;5003466;28;20415;-58
2022/03/25 10:08:38;;;;;;;4.28;1.40;;;;;;;;;;5006035;28;20042;-60
2022/03/25 10:11:20;;;;;;;2.58;1.15;;;;;;;;;;5006673;28;20175;-59
2022/03/25 10:13:46;;;;;;;3.70;1.40;;;;;;;;;;5006181;27;20049;-55
2022/03/25 10:16:48;;;;;;;5.43;2.38;;;;;;;;;;5005724;28;20049;-59
2022/03/25 10:19:22;;;;;;;5.18;2.63;;;;;;;;;;4972614;28;20105;-58
2022/03/25 10:21:54;;;;;;;9.60;3.88;;;;;;;;;;5002644;28;20060;-59
2022/03/25 10:24:55;;;;;;;8.13;4.38;;;;;;;;;;5007237;28;20045;-58
2022/03/25 10:27:22;;;;;;;6.63;3.25;;;;;;;;;;5051527;28;20056;-57
2022/03/25 10:29:50;;;;;;;10.68;4.35;;;;;;;;;;5014932;28;20058;-59
2022/03/25 10:32:24;;;;;;;10.13;4.15;;;;;;;;;;5005768;28;20818;-59
2022/03/25 10:35:02;;;;;;;13.52;5.18;;;;;;;;;;5007368;28;20056;-59
2022/03/25 10:37:28;;;;;;;11.27;5.30;;;;;;;;;;4998281;28;20044;-57
2022/03/25 10:39:54;;;;;;;16.38;6.55;;;;;;;;;;4986895;28;20888;-59
2022/03/25 10:42:20;;;;;;;14.02;6.35;;;;;;;;;;5007368;28;20064;-54
2022/03/25 10:44:46;;;;;;;13.07;5.65;;;;;;;;;;4998535;28;20737;-59
2022/03/25 10:47:15;;;;;;;11.73;5.07;;;;;;;;;;4998850;28;20042;-58
2022/03/25 10:49:46;;;;;;;8.95;4.13;;;;;;;;;;5017169;27;20042;-58
2022/03/25 10:52:31;;;;;;;12.60;3.80;;;;;;;;;;5006364;28;20061;-57
2022/03/25 10:55:16;;;;;;;10.98;3.65;;;;;;;;;;5002311;27;20657;-57
2022/03/25 10:57:58;;;;;;;9.75;2.80;;;;;;;;;;5005474;28;20048;-55
2022/03/25 11:00:25;;;;;;;6.50;2.60;;;;;;;;;;5006474;28;20054;-60
2022/03/25 11:02:51;;;;;;;7.57;1.90;;;;;;;;;;5007522;28;20080;-59
2022/03/25 11:05:17;;;;;;;6.07;1.92;;;;;;;;;;5008047;28;20033;-59
2022/03/25 11:07:44;;;;;;;8.82;1.83;;;;;;;;;;5009814;28;20034;-58
2022/03/25 11:10:14;;;;;;;8.73;1.80;;;;;;;;;;5034273;28;20431;-60
2022/03/25 11:12:47;;;;;;;4.93;1.70;;;;;;;;;;5054663;28;20042;-57
2022/03/25 11:15:20;;;;;;;7.60;1.58;;;;;;;;;;5004501;28;20042;-59
2022/03/25 11:17:46;;;;;;;10.73;1.83;;;;;;;;;;5009735;28;21019;-56
2022/03/25 11:20:16;;;;;;;6.93;1.80;;;;;;;;;;5010561;28;20037;-59
2022/03/25 11:22:48;;;;;;;5.78;1.70;;;;;;;;;;5006997;28;20046;-59
2022/03/25 11:25:16;;;;;;;3.00;1.23;;;;;;;;;;5009374;28;20045;-59
2022/03/25 11:27:46;;;;;;;3.22;1.20;;;;;;;;;;5008086;28;20121;-59
2022/03/25 11:30:16;;;;;;;6.45;1.20;;;;;;;;;;5008245;28;20050;-59
2022/03/25 11:32:49;;;;;;;6.35;1.45;;;;;;;;;;5005743;28;20116;-58
2022/03/25 11:35:16;;;;;;;4.68;1.50;;;;;;;;;;5004742;28;20128;-56
2022/03/25 11:37:42;;;;;;;2.35;0.93;;;;;;;;;;5007584;28;20056;-59
2022/03/25 11:40:15;;;;;;;4.07;1.33;;;;;;;;;;5012199;27;20034;-62
2022/03/25 11:42:42;;;;;;;4.22;1.65;;;;;;;;;;5006708;27;20081;-62
2022/03/25 11:45:20;;;;;;;2.65;1.10;;;;;;;;;;4992868;28;20042;-56
2022/03/25 11:48:10;;;;;;;3.22;1.23;;;;;;;;;;5006714;27;20377;-58
2022/03/25 11:50:40;;;;;;;3.92;1.38;;;;;;;;;;5011648;27;20033;-54
2022/03/25 11:53:12;;;;;;;4.20;1.30;;;;;;;;;;5012407;27;20681;-56
2022/03/25 11:55:56;;;;;;;5.05;1.50;;;;;;;;;;5010597;28;20045;-59
2022/03/25 11:58:22;;;;;;;3.00;1.10;;;;;;;;;;5012996;28;20907;-58
2022/03/25 12:00:51;;;;;;;5.35;1.70;;;;;;;;;;5009715;27;20054;-59
2022/03/25 12:03:17;;;;;;;3.28;1.40;;;;;;;;;;4994206;27;20030;-58
2022/03/25 12:05:57;;;;;;;3.35;1.40;;;;;;;;;;4989662;28;20042;-57
2022/03/25 12:08:31;;;;;;;3.35;1.50;;;;;;;;;;5043286;27;20693;-59
2022/03/25 12:10:57;;;;;;;3.47;1.58;;;;;;;;;;5008351;27;20077;-58
2022/03/25 12:13:43;;;;;;;3.28;1.48;;;;;;;;;;5008301;27;20087;-59
2022/03/25 12:16:09;;;;;;;3.20;1.00;;;;;;;;;;5011218;27;20046;-58
2022/03/25 12:18:39;;;;;;;2.80;0.95;;;;;;;;;;5007846;27;20517;-59
2022/03/25 12:21:10;;;;;;;5.03;1.42;;;;;;;;;;5007157;28;20144;-58
2022/03/25 12:23:36;;;;;;;3.40;1.38;;;;;;;;;;4998962;28;20046;-59
2022/03/25 12:26:02;;;;;;;8.35;1.58;;;;;;;;;;5007831;28;20060;-59
2022/03/25 12:28:28;;;;;;;2.75;1.13;;;;;;;;;;5007767;27;20043;-60
2022/03/25 12:30:55;;;;;;;6.28;1.45;;;;;;;;;;5008313;27;20517;-60
2022/03/25 12:33:21;;;;;;;5.45;1.30;;;;;;;;;;5005256;28;20049;-59
2022/03/25 12:35:47;;;;;;;9.18;1.88;;;;;;;;;;4990630;28;20091;-60
2022/03/25 12:38:18;;;;;;;7.97;1.13;;;;;;;;;;5009066;28;20041;-58
2022/03/25 12:40:45;;;;;;;5.15;1.83;;;;;;;;;;4989680;28;20059;-59
2022/03/25 12:43:11;;;;;;;4.65;1.30;;;;;;;;;;5009491;28;20037;-59
2022/03/25 12:45:49;;;;;;;7.88;1.38;;;;;;;;;;4990942;28;20615;-59
2022/03/25 12:48:16;;;;;;;3.40;1.40;;;;;;;;;;5004887;28;20041;-60
2022/03/25 12:50:49;;;;;;;7.32;1.80;;;;;;;;;;5009015;27;20052;-61
2022/03/25 12:53:15;;;;;;;9.15;1.30;;;;;;;;;;5005348;28;20042;-60
2022/03/25 12:55:42;;;;;;;4.20;1.58;;;;;;;;;;4988906;28;20041;-63
2022/03/25 12:58:09;;;;;;;4.10;1.30;;;;;;;;;;5007566;27;20041;-60
2022/03/25 13:00:36;;;;;;;3.58;1.27;;;;;;;;;;4990675;28;20072;-60
2022/03/25 13:03:03;;;;;;;3.47;1.42;;;;;;;;;;5008280;27;20048;-60
2022/03/25 13:05:29;;;;;;;2.30;1.02;;;;;;;;;;4992306;28;20045;-61
2022/03/25 13:07:57;;;;;;;4.30;1.60;;;;;;;;;;5007900;27;20875;-60
2022/03/25 13:10:24;;;;;;;4.93;1.40;;;;;;;;;;5006290;28;20049;-59
2022/03/25 13:12:53;;;;;;;11.40;1.45;;;;;;;;;;4988465;28;20038;-60
2022/03/25 13:15:39;;;;;;;3.92;1.42;;;;;;;;;;5008842;27;20038;-59
2022/03/25 13:18:06;;;;;;;3.13;1.50;;;;;;;;;;5006262;28;20036;-60
2022/03/25 13:20:42;;;;;;;3.25;1.58;;;;;;;;;;5008449;28;20041;-60
2022/03/25 13:23:10;;;;;;;4.47;1.58;;;;;;;;;;5007065;28;20053;-60
2022/03/25 13:25:53;;;;;;;3.85;1.42;;;;;;;;;;5008944;27;20053;-60
2022/03/25 13:28:19;;;;;;;5.28;1.48;;;;;;;;;;5006131;28;20092;-61
2022/03/25 13:30:48;;;;;;;7.97;1.48;;;;;;;;;;5007719;28;20042;-58
2022/03/25 13:33:18;;;;;;;4.85;1.73;;;;;;;;;;5007780;28;20044;-61
2022/03/25 13:35:48;;;;;;;4.00;1.80;;;;;;;;;;5007744;28;20053;-61
2022/03/25 13:38:16;;;;;;;4.57;1.50;;;;;;;;;;4992812;28;20044;-61
2022/03/25 13:40:44;;;;;;;4.88;1.65;;;;;;;;;;5007139;28;20054;-59
2022/03/25 13:43:12;;;;;;;5.07;1.58;;;;;;;;;;5007947;28;20128;-61
2022/03/25 13:45:39;;;;;;;3.25;1.38;;;;;;;;;;4994847;28;20069;-61
2022/03/25 13:48:05;;;;;;;8.38;1.45;;;;;;;;;;5004832;28;20057;-61
2022/03/25 13:50:31;;;;;;;7.28;1.45;;;;;;;;;;5005790;28;20087;-59
2022/03/25 13:53:09;;;;;;;3.28;1.30;;;;;;;;;;5008114;28;20045;-59
2022/03/25 13:55:42;;;;;;;3.47;1.30;;;;;;;;;;5004068;28;20042;-60
2022/03/25 13:58:12;;;;;;;5.50;1.63;;;;;;;;;;5005691;28;20084;-61
2022/03/25 14:00:41;;;;;;;4.25;1.40;;;;;;;;;;5007746;28;20053;-60
2022/03/25 14:03:08;;;;;;;4.70;1.70;;;;;;;;;;5006179;28;20070;-61
2022/03/25 14:05:34;;;;;;;4.68;1.42;;;;;;;;;;5001829;28;20033;-61
2022/03/25 14:08:01;;;;;;;5.18;1.70;;;;;;;;;;5008474;28;20065;-60
2022/03/25 14:10:28;;;;;;;5.10;1.33;;;;;;;;;;5007027;28;20082;-61
2022/03/25 14:12:58;;;;;;;3.67;1.42;;;;;;;;;;5007815;28;20589;-61
2022/03/25 14:15:26;;;;;;;2.80;1.08;;;;;;;;;;5008434;28;20045;-61
2022/03/25 14:17:52;;;;;;;3.30;1.40;;;;;;;;;;5007868;28;20037;-60
2022/03/25 14:20:20;;;;;;;5.07;1.70;;;;;;;;;;5008998;28;21820;-60
2022/03/25 14:22:47;;;;;;;3.75;1.40;;;;;;;;;;5008771;27;20064;-59
2022/03/25 14:25:14;;;;;;;3.92;1.10;;;;;;;;;;5009494;28;20038;-59
2022/03/25 14:27:47;;;;;;;3.03;1.20;;;;;;;;;;5007017;28;20033;-59
2022/03/25 14:30:13;;;;;;;3.92;1.10;;;;;;;;;;5009208;28;20064;-60
2022/03/25 14:32:40;;;;;;;2.55;1.15;;;;;;;;;;5008046;28;20038;-59
2022/03/25 14:35:06;;;;;;;3.25;1.30;;;;;;;;;;5009336;28;20142;-60
2022/03/25 14:37:32;;;;;;;3.10;1.13;;;;;;;;;;5007121;28;20073;-60
2022/03/25 14:39:58;;;;;;;3.70;1.15;;;;;;;;;;5006878;28;20037;-63
2022/03/25 14:42:24;;;;;;;4.28;1.27;;;;;;;;;;5006320;28;20083;-61
2022/03/25 14:44:50;;;;;;;5.32;1.25;;;;;;;;;;5007648;27;20048;-59
2022/03/25 14:47:16;;;;;;;4.25;1.38;;;;;;;;;;5007295;28;20045;-61